CMS Time Trial Series #2 2018

# of participants: 143# of finishers: 143last updated: 5/2/2018 6:28 pm
Result Questions?
Award Overall Bib First Name Last Name Gender Age Age Group Rank Division Div Rank City ST Finish Time Speed Lap 1 Lap 2 Lap 3 Lap 4 Lap 5
1 527 CHRISTOPHER MATHIS M 25 Licensed Cat 1, 2 1 COLUMBIA SC 22:06.30 30.67 mph 4:15.90 4:24.10 4:29.10 4:31.10 4:25.90
2 506 CHESTER CHAD M 39 Tandem 1 MOORESVILLE NC 22:19.60 30.37 mph 4:21.60 4:29.50 4:26.20 4:32.80 4:29.30
3 547 NICHOLAS LUTHER M 26 Licensed Cat 1, 2 2 GREENVILLE SC 22:36.40 29.99 mph 4:24.60 4:29.70 4:35.60 4:37.30 4:29.00
4 530 LAWRENCE OSLUND M 58 Motorsports TT 1 HENDERSONVILLE NC 22:37.50 29.97 mph 4:34.80 4:35.20 4:32.70 4:28.50 4:26.10
5 508 CODY DANNEN M 33 Licensed Cat 3 1 MOORESVILLE NC 22:51.00 29.67 mph 4:37.30 4:39.90 4:30.30 4:34.30 4:29.00
6 521 DEREK KIDWELL M 33 1 Recreation - Age Groups 1 MOORESVILLE NC 23:18.00 29.1 mph 4:40.30 4:45.10 4:43.40 4:39.10 4:29.80
7 546 DANIEL DUCKWORTH M 38 Licensed Cat 4 1 421 SEVEN DEVILS RD BANNE NC 23:35.20 28.75 mph 4:51.60 4:46.60 4:40.60 4:32.40 4:43.80
8 525 JAMES MARTIN M 58 Licensed - Masters 55+ 1 ARDEN NC 23:38.20 28.68 mph 4:34.40 4:47.00 4:47.40 4:46.80 4:42.40
9 511 GENE FOWLER M 53 Licensed Cat 1, 2 3 BOONE NC 23:46.70 28.51 mph 4:42.70 4:43.20 4:46.40 4:51.20 4:43.00
10 543 PIOTR JASNOCH M 39 Licensed - Masters 35+ 1 CHARLOTTE NC 23:52.20 28.4 mph 4:38.70 4:47.60 4:52.00 4:47.90 4:45.80
11 537 RICK WESLOCK M 46 1 Recreation - Age Groups 2 105 CREEKSIDE DRIVE SC 23:56.00 28.33 mph 4:40.10 4:47.80 4:52.10 4:53.00 4:42.80
12 517 MARK HOULIHAN M 49 Licensed - Masters 45+ 1 DAVIDSON NC 23:59.90 28.25 mph 4:46.70 4:47.60 4:48.00 4:49.00 4:48.40
13 529 LEVI NELSON M 36 Licensed Cat 3 2 CHARLOTTE NC 24:05.20 28.15 mph 4:40.90 4:47.40 4:52.50 4:52.00 4:52.30
14 533 DAVIAN ROBINSON M 25 Tandem 2 CHARLOTTE NC 24:14.30 27.97 mph 4:35.10 4:48.90 4:54.90 5:01.60 4:53.70
15 544 TYLER LABELLE M 33 Merckx Men 1 CHARLOTTE NC 24:29.80 27.68 mph 4:41.40 4:55.70 4:59.70 5:01.90 4:50.90
16 519 ERIK JOHNSON M 51 1 Recreation - Age Groups 3 CORNELIUS NC 24:34.50 27.59 mph 4:49.00 4:58.80 4:59.20 4:56.40 4:50.90
17 535 GLEN THOMPSON M 48 2 Recreation - Age Groups 4 DAVIDSON NC 24:35.40 27.57 mph 4:48.10 4:54.00 4:56.00 4:59.30 4:57.90
18 501 ALEX CAILLAT M 38 1 Recreation - Age Groups 5 HIGH POINT NC 24:50.40 27.29 mph 4:50.60 5:03.30 5:06.10 5:00.20 4:50.10
19 522 JENNY LEISER F 38 Licensed - Women Cat 3 1 4438 APPLEGATE RD NC 24:57.90 27.16 mph 5:02.30 5:02.50 5:03.60 4:59.10 4:50.20
20 531 MARK PETERSON M 66 1 Recreation - Age Groups 6 CORNELIUS NC 25:04.70 27.04 mph 4:55.80 5:00.50 5:00.60 5:03.60 5:04.00
21 368 LAURENT PAINCHAUD M 42 Licensed Cat 1, 2 4 WAXHAW NC 25:09.10 26.96 mph 4:51.20 5:03.60 5:04.70 5:03.70 5:05.80
22 515 JOSEF HALLATSCHEK M 57 1 Recreation - Age Groups 7 FAYETTEVILLE NC 25:17.90 26.8 mph 5:13.00 5:07.00 4:59.00 5:00.00 4:58.70
23 545 BOB KERNS M 61 Fixed Gear 1 HUNTERSVILLE NC 25:19.50 26.77 mph 4:55.10 5:07.90 5:02.80 5:09.00 5:04.50
24 503 JON CANGALOSI M 52 2 Recreation - Age Groups 8 1141 SAN MICHELE PLACE D NC 25:25.10 26.67 mph 4:54.10 4:54.80 5:12.70 5:16.30 5:07.00
25 538 JONATHAN WISE M 42 1 Recreation - Age Groups 9 CHARLOTTE NC 25:27.80 26.63 mph 4:59.20 5:06.30 5:10.00 5:06.00 5:06.20
26 507 ALEXANDER COWELL M 49 Licensed Cat 4 2 CHAPEL HILL NC 25:28.70 26.61 mph 5:11.40 5:13.90 5:06.10 4:54.70 5:02.40
27 524 CHUCK MANTOOTH M 50 Licensed Cat 5 1 BOONE NC 25:36.30 26.48 mph 4:57.00 5:01.80 5:05.80 5:18.40 5:13.10
28 528 JUSTIN MCKEAN M 44 Merckx Men 2 TROUTMAN NC 25:45.00 26.33 mph 4:52.60 5:12.00 5:13.40 5:17.60 5:09.20
29 328 FRED MITCHELL M 43 2 Recreation - Age Groups 10 GALAX VA 25:45.60 26.32 mph 5:03.00 5:11.10 5:14.40 5:12.10 5:04.90
30 362 ERIK GREENFIELD M 46 3 Recreation - Age Groups 11 CHARLOTTE NC 25:47.50 26.29 mph 5:06.40 5:14.10 5:12.10 5:07.40 5:07.40
31 504 MIKE CAPUANO M 52 3 Recreation - Age Groups 12 7620 BERRYFIELD COURT NC 25:51.60 26.22 mph 4:54.30 5:09.30 5:16.90 5:20.30 5:10.60
32 532 BILL RADLER M 60 1 Recreation - Age Groups 13 MARIETTA GA 25:56.30 26.14 mph 5:05.40 5:09.20 5:11.70 5:15.70 5:14.20
33 500 MICHAEL BYRD M 47 Merckx Men 3 MOORESVILLE NC 25:59.60 26.08 mph 5:01.30 5:10.50 5:16.40 5:18.40 5:13.00
34 334 NATHAN ROGUT M 39 Licensed - Masters 35+ 2 ROCK HILL SC 26:01.90 26.05 mph 4:52.40 5:11.20 5:19.80 5:20.70 5:17.60
35 510 DAN FINERAN M 67 2 Recreation - Age Groups 14 MOORESVILLE NC 26:12.80 25.86 mph 5:10.70 5:14.70 5:19.50 5:15.20 5:12.60
36 518 REUBEN HOWDEN M 47 Merckx Men 4 366 W CENTER AVE MOORESV NC 26:13.00 25.86 mph 5:09.60 5:11.70 5:15.90 5:19.90 5:15.70
37 516 JIMMY HERRIN M 58 Licensed - Masters 55+ 2 HARRISBURG NC 26:19.90 25.75 mph 5:05.20 5:13.30 5:19.80 5:24.60 5:16.80
38 343 JEFF WOLSHON M 52 4 Recreation - Age Groups 15 CHARLOTTE NC 26:21.30 25.73 mph 5:06.60 5:15.50 5:18.60 5:20.50 5:19.90
39 302 ISAAC BLACKBURN M 37 Merckx Men 5 NEWTON NC 26:25.50 25.66 mph 5:09.10 5:17.20 5:24.30 5:17.00 5:17.70
40 505 PATRICK CARPENTER M 54 5 Recreation - Age Groups 16 MOORESVILLE NC 26:26.10 25.65 mph 4:59.00 5:15.80 5:14.90 5:27.10 5:29.10
41 512 KEVIN FREEMAN M 52 Licensed - Masters 45+ 2 CHARLOTTE NC 26:30.80 25.57 mph 5:04.30 5:18.10 5:24.90 5:26.20 5:17.10
42 542 ALEXANDRA HAMMOURI F 33 Licensed - Women Cat 3 2 3903 DOVER PARK RD NC 26:33.00 25.54 mph 5:03.00 5:21.70 5:25.00 5:25.40 5:17.80
43 514 GENE HAAS M 41 3 Recreation - Age Groups 17 CHARLOTTE NC 26:39.40 25.43 mph 5:11.40 5:25.30 5:25.00 5:20.40 5:17.20
44 330 JOEL NEFF M 36 Merckx Men 6 SIMPSONVILLE SC 26:46.60 25.32 mph 5:09.40 5:17.10 5:22.30 5:33.20 5:24.50
45 308 JOHN ERICKSON M 52 Licensed Cat 5 2 GREENSBORO NC 26:49.30 25.28 mph 5:10.00 5:22.70 5:24.50 5:28.20 5:23.70
46 335 CHARLES ROUSE M 57 2 Recreation - Age Groups 18 506 TRAFALGAR PLACE NC 27:06.40 25.01 mph 5:19.30 5:32.70 5:29.90 5:24.70 5:19.60
47 317 MATT HARTMAN M 47 Tandem 3 CONCORD NC 27:10.30 24.95 mph 5:23.10 5:32.00 5:34.70 5:32.30 5:08.00
48 361 LAT PURSER M 66 3 Recreation - Age Groups 19 1320 CHADSFORD PL CHARLO NC 27:11.40 24.94 mph 5:20.30 5:20.20 5:29.10 5:31.80 5:29.90
49 306 JIM COLEMAN M 50 6 Recreation - Age Groups 20 HARRISBURG NC 27:23.50 24.75 mph 5:21.40 5:32.30 5:32.90 5:29.00 5:27.80
50 304 CHRIS BROWN M 50 7 Recreation - Age Groups 21 HUNTERSVILLE NC 27:37.30 24.55 mph 5:25.30 5:38.00 5:36.50 5:34.90 5:22.50
51 324 SARAH MATCHETT F 47 Merckx Women 1 DAVIDSON NC 27:42.00 24.48 mph 5:33.90 5:40.20 5:27.60 5:33.30 5:27.00
52 326 STEVE MCGLOTHLIN M 58 3 Recreation - Age Groups 22 MOORESVILLE NC 27:46.40 24.41 mph 5:33.10 5:34.90 5:37.40 5:34.80 5:26.10
53 311 ALEX GAURA M 17 1 Recreation - Age Groups 23 MONROE NC 27:50.00 24.36 mph 5:29.50 5:34.30 5:34.70 5:37.60 5:33.80
54 303 CHRISTI BRITT F 47 Licensed - Women Cat 4 1 ASHEVILLE NC 27:53.70 24.31 mph 5:26.90 5:31.90 5:35.30 5:39.80 5:39.60
55 332 PAUL PAISANT M 50 Merckx Men 7 HIGH POINT NC 27:56.40 24.27 mph 5:21.70 5:34.70 5:42.30 5:41.10 5:36.40
56 358 SHANE MARTIN M 45 Merckx Men 8 3727 AYRSHIIRE COURT NC 28:07.00 24.11 mph 5:19.80 5:36.20 5:41.70 5:49.40 5:39.70
57 367 LONNIE MORENO M 51 Licensed - Masters 45+ 3 3203 THAYER DR WAXHAW NC 28:07.70 24.1 mph 5:13.60 5:37.10 5:48.50 5:49.40 5:38.90
58 366 JAMES GUIMOND M 57 4 Recreation - Age Groups 24 CHARLOTTE NC 28:20.10 23.93 mph 5:32.00 5:33.70 5:41.60 5:42.80 5:49.80
59 364 EARLE KOONTZ M 47 4 Recreation - Age Groups 25 SALISBURY NC 28:30.90 23.78 mph 5:21.00 5:44.90 5:45.80 5:52.20 5:46.90
60 309 LAURA GAGEL F 52 1 Recreation - Age Groups 1 SHERRILLS FORD NC 28:37.50 23.69 mph 5:42.20 5:43.50 5:42.60 5:49.50 5:39.40
61 363 JONATHAN MARSHALL M 45 Merckx Men 9 HUNTERSVILLE NC 28:37.70 23.68 mph 5:35.80 5:40.60 5:44.10 5:51.80 5:45.20
62 310 KEITH GARDINER M 57 5 Recreation - Age Groups 26 TRINITY NC 28:38.90 23.67 mph 5:44.90 5:45.00 5:42.60 5:48.30 5:38.00
63 307 MARSHALL ELLIS M 60 2 Recreation - Age Groups 27 154 BYERS ROAD TROUTMAN NC 28:40.10 23.65 mph 5:25.40 5:46.00 5:46.30 5:51.10 5:51.00
64 333 TYLER ROBINSON M 43 4 Recreation - Age Groups 28 TROUTMAN NC 28:41.70 23.63 mph 5:27.60 5:48.80 5:51.80 5:52.80 5:40.50
65 339 AUSTIN WACHTER M 43 Merckx Men 10 CORNELIUS NC 28:41.80 23.63 mph 5:30.90 5:43.60 5:45.40 5:54.80 5:47.00
66 502 LAURA CALVIN F 42 Licensed - Women Cat 3 3 19527 SHEARER ROAD NC 28:45.00 23.58 mph 5:41.80 5:50.00 5:44.50 5:44.50 5:44.00
67 319 FLORENCE HOWDEN F 22 Merckx Women 2 CHARLOTTE NC 28:45.40 23.58 mph 5:38.70 5:48.30 5:46.90 5:47.20 5:44.10
68 360 TERRENCE SHIELS M 64 3 Recreation - Age Groups 29 1101 SEWICKLEY DR. CHARL NC 28:45.80 23.57 mph 5:50.80 5:38.60 5:46.50 5:45.00 5:44.70
69 336 STEVE STERKA M 49 5 Recreation - Age Groups 30 CONCORD NC 29:03.90 23.33 mph 5:31.10 5:47.80 5:56.30 5:54.90 5:53.50
70 163 DALTON BICKFORD M 22 Merckx Men 11 COLUMBIA SC 29:07.70 23.28 mph 5:26.90 5:53.00 5:57.20 5:59.40 5:51.00
71 132 PAM ROSEMAN F 49 1 Recreation - Age Groups 2 SALISBURY NC 29:11.70 23.22 mph 5:43.70 5:46.20 5:47.00 5:55.30 5:59.40
72 300 JEFF ALDRICH M 47 Licensed Cat 5 3 CHARLOTTE NC 29:14.00 23.19 mph 5:41.40 5:54.10 5:54.20 5:58.70 5:45.30
73 315 TANY HARRIS F 45 Licensed - Women Cat 3 4 8212 SHADOW STONE COURT NC 29:14.20 23.19 mph 29:14.20
74 301 DEVON BAIN M 33 2 Recreation - Age Groups 31 DENVER NC 29:25.90 23.04 mph 5:46.60 6:07.40 5:58.90 5:58.40 5:34.40
75 341 DENNIS WIESE M 46 Merckx Men 12 DAVIDSON NC 29:32.50 22.95 mph 5:37.40 6:01.90 6:03.80 6:01.00 5:48.10
76 160 ANDY MITCHELL M 48 Merckx Men 13 3809 BELLINGHAM LANE NC 29:36.10 22.9 mph 5:45.90 5:55.00 5:59.90 5:59.50 5:55.50
77 359 GARY MARTIN M 45 Merckx Men 14 3727 AYRSHIIRE COURT NC 29:39.10 22.87 mph 5:42.80 5:54.30 6:00.40 6:02.80 5:58.60
78 340 RANDY WHITT M 71 1 Recreation - Age Groups 32 CHARLOTTE NC 29:40.30 22.85 mph 5:56.20 5:57.70 5:51.90 5:56.50 5:57.90
79 313 FANIE GOUWS M 61 4 Recreation - Age Groups 33 CHARLOTTE NC 29:42.80 22.82 mph 5:38.00 5:50.50 5:53.50 6:08.20 6:12.40
80 338 THOMAS STREATER M 42 5 Recreation - Age Groups 34 CONCORD NC 29:50.10 22.72 mph 5:49.70 5:55.10 6:01.70 6:02.60 6:00.70
81 139 WILL STEPHENSON M 16 2 Recreation - Age Groups 35 HICKORY NC 29:53.00 22.69 mph 6:01.00 6:10.10 6:08.50 5:58.80 5:34.40
82 119 GRANT HAINES M 56 Licensed - Masters 55+ 3 MOORESVILLE NC 29:54.00 22.68 mph 5:38.40 5:57.70 5:58.50 6:02.10 6:17.30
83 165 JOHN ROSE M 51 8 Recreation - Age Groups 36 DAVIDSON NC 29:54.30 22.67 mph 5:56.50 6:01.90 5:51.50 6:01.90 6:02.30
84 155 JULIE PAISANT F 47 Merckx Women 3 1702 GENTRY CT NC 29:58.10 22.62 mph 5:41.70 5:56.00 6:06.30 6:05.70 6:08.20
85 142 DIRK WUENSCHE M 50 9 Recreation - Age Groups 37 TEGA CAY SC 30:01.70 22.58 mph 5:47.90 6:00.00 6:03.70 6:13.30 5:56.70
86 124 MANDY MIDGETT F 44 1 Recreation - Age Groups 3 ABERDEEN NC 30:03.40 22.56 mph 6:06.00 5:59.10 5:59.10 6:04.10 5:54.90
87 316 DANA HARTLEY M 54 10 Recreation - Age Groups 38 MINT HILL NC 30:17.10 22.39 mph 5:56.60 5:55.30 6:08.10 6:12.00 6:05.00
88 156 TRUDY GALE F 60 1 Recreation - Age Groups 4 230 SELLS ROAD SALISBURY NC 30:23.90 22.3 mph 5:59.50 6:02.90 6:11.50 6:11.00 5:58.80
89 329 BARRY MOTSINGER M 60 5 Recreation - Age Groups 39 WINSTON-SALEM NC 30:25.10 22.29 mph 6:03.00 6:09.00 6:05.70 6:04.90 6:02.30
90 175 JEREMY MAYNARD M 37 Merckx Men 15 1470 WOODSIDE DRIVE NC 30:28.70 22.25 mph 5:49.80 6:04.90 6:15.90 6:11.80 6:06.20
91 116 ROB DUFFY M 67 4 Recreation - Age Groups 40 SALISBURY NC 30:30.20 22.23 mph 6:01.20 6:20.40 6:08.60 6:08.30 5:51.50
92 133 MARC SCHREURS M 61 6 Recreation - Age Groups 41 CHARLOTTE NC 30:31.80 22.21 mph 5:59.90 6:06.10 6:08.90 6:14.10 6:02.60
93 138 SCOTT STEPHENSON M 50 11 Recreation - Age Groups 42 HICKORY NC 30:47.40 22.02 mph 6:10.40 6:18.00 6:12.70 6:14.60 5:51.50
94 337 DWIGHT STEWART M 71 2 Recreation - Age Groups 43 CLAREMONT NC 31:11.40 21.74 mph 6:04.60 6:16.10 6:27.20 6:23.80 5:59.60
95 176 BRUCE BICKAR M 50 12 Recreation - Age Groups 44 KANNAPOLIS NC 31:13.00 21.72 mph 5:43.90 6:15.00 6:26.20 6:19.60 6:28.20
96 104 JET FRANCIS F 13 1 Recreation - Age Groups 5 10243 STONEMEDE LN MATT NC 31:14.60 21.7 mph 6:07.30 6:19.10 6:10.20 6:23.50 6:14.40
97 117 JODY FRAZIER F 43 2 Recreation - Age Groups 6 CHARLOTTE NC 31:15.30 21.69 mph 6:13.40 6:09.60 6:14.50 6:15.00 6:22.60
98 365 CHRIS ASHWORTH M 56 6 Recreation - Age Groups 45 CHARLOTTE NC 31:32.40 21.5 mph 5:55.10 6:16.20 6:23.20 6:28.90 6:28.70
99 135 MONICA SMITH F 51 2 Recreation - Age Groups 7 HUNTERSVILLE NC 31:34.30 21.47 mph 6:05.00 6:33.40 6:29.80 6:17.80 6:08.10
100 109 GLENN BORIE M 62 Licensed Cat 5 4 4758 PINEY GROVE CHURCH R NC 31:47.30 21.33 mph 6:00.80 6:29.30 6:32.00 6:20.50 6:24.50